sensor_id;sensor_type;location;lat;lon;timestamp;pressure;altitude;pressure_sealevel;temperature;humidity
74270;BME280;62754;48.252;11.654;2023-03-01T00:00:46;96732.50;;;1.12;69.34
74270;BME280;62754;48.252;11.654;2023-03-01T00:03:12;96736.59;;;1.16;69.25
74270;BME280;62754;48.252;11.654;2023-03-01T00:05:44;96737.75;;;1.06;68.94
74270;BME280;62754;48.252;11.654;2023-03-01T00:08:09;96740.13;;;1.12;69.02
74270;BME280;62754;48.252;11.654;2023-03-01T00:10:35;96733.31;;;1.12;69.18
74270;BME280;62754;48.252;11.654;2023-03-01T00:13:01;96727.25;;;1.16;69.37
74270;BME280;62754;48.252;11.654;2023-03-01T00:15:27;96732.69;;;1.06;68.88
74270;BME280;62754;48.252;11.654;2023-03-01T00:17:53;96728.72;;;0.97;69.83
74270;BME280;62754;48.252;11.654;2023-03-01T00:20:18;96727.75;;;1.01;69.50
74270;BME280;62754;48.252;11.654;2023-03-01T00:22:44;96731.09;;;1.03;69.38
74270;BME280;62754;48.252;11.654;2023-03-01T00:25:10;96726.03;;;1.03;69.67
74270;BME280;62754;48.252;11.654;2023-03-01T00:27:36;96723.72;;;0.95;70.38
74270;BME280;62754;48.252;11.654;2023-03-01T00:30:01;96725.28;;;1.00;70.13
74270;BME280;62754;48.252;11.654;2023-03-01T00:32:27;96723.41;;;1.05;70.04
74270;BME280;62754;48.252;11.654;2023-03-01T00:34:53;96722.03;;;0.96;70.21
74270;BME280;62754;48.252;11.654;2023-03-01T00:37:20;96717.88;;;0.93;70.21
74270;BME280;62754;48.252;11.654;2023-03-01T00:39:46;96721.78;;;1.04;70.05
74270;BME280;62754;48.252;11.654;2023-03-01T00:42:12;96708.88;;;1.10;69.08
74270;BME280;62754;48.252;11.654;2023-03-01T00:44:37;96710.00;;;1.01;70.26
74270;BME280;62754;48.252;11.654;2023-03-01T00:47:03;96712.72;;;0.97;69.82
74270;BME280;62754;48.252;11.654;2023-03-01T00:49:29;96717.97;;;0.90;70.19
74270;BME280;62754;48.252;11.654;2023-03-01T00:51:55;96710.09;;;0.98;69.92
74270;BME280;62754;48.252;11.654;2023-03-01T00:54:21;96708.28;;;1.02;69.40
74270;BME280;62754;48.252;11.654;2023-03-01T00:56:47;96702.72;;;0.92;69.71
74270;BME280;62754;48.252;11.654;2023-03-01T00:59:12;96697.31;;;1.01;70.04
74270;BME280;62754;48.252;11.654;2023-03-01T01:01:38;96701.66;;;0.98;70.50
74270;BME280;62754;48.252;11.654;2023-03-01T01:04:07;96694.38;;;1.13;69.25
74270;BME280;62754;48.252;11.654;2023-03-01T01:06:36;96686.41;;;0.99;69.83
74270;BME280;62754;48.252;11.654;2023-03-01T01:09:03;96683.28;;;0.91;69.90
74270;BME280;62754;48.252;11.654;2023-03-01T01:11:29;96682.16;;;1.00;69.74
74270;BME280;62754;48.252;11.654;2023-03-01T01:13:56;96670.56;;;0.92;69.50
74270;BME280;62754;48.252;11.654;2023-03-01T01:16:24;96675.63;;;0.92;69.73
74270;BME280;62754;48.252;11.654;2023-03-01T01:18:49;96682.09;;;1.01;69.63
74270;BME280;62754;48.252;11.654;2023-03-01T01:21:19;96672.16;;;0.95;69.88
74270;BME280;62754;48.252;11.654;2023-03-01T01:23:45;96666.25;;;0.94;70.15
74270;BME280;62754;48.252;11.654;2023-03-01T01:26:17;96659.91;;;0.81;69.87
74270;BME280;62754;48.252;11.654;2023-03-01T01:28:43;96662.47;;;1.06;69.45
74270;BME280;62754;48.252;11.654;2023-03-01T01:31:09;96663.81;;;0.91;69.94
74270;BME280;62754;48.252;11.654;2023-03-01T01:33:35;96659.72;;;0.87;70.11
74270;BME280;62754;48.252;11.654;2023-03-01T01:36:01;96661.69;;;0.79;70.25
74270;BME280;62754;48.252;11.654;2023-03-01T01:38:27;96657.59;;;0.75;70.64
74270;BME280;62754;48.252;11.654;2023-03-01T01:40:53;96658.19;;;0.83;70.26
74270;BME280;62754;48.252;11.654;2023-03-01T01:43:22;96661.69;;;0.79;70.36
74270;BME280;62754;48.252;11.654;2023-03-01T01:45:49;96657.13;;;0.89;69.72
74270;BME280;62754;48.252;11.654;2023-03-01T01:48:22;96661.22;;;0.93;69.70
74270;BME280;62754;48.252;11.654;2023-03-01T01:51:00;96652.13;;;0.87;69.75
74270;BME280;62754;48.252;11.654;2023-03-01T01:53:26;96655.09;;;0.74;70.53
74270;BME280;62754;48.252;11.654;2023-03-01T01:55:55;96646.63;;;0.75;70.56
74270;BME280;62754;48.252;11.654;2023-03-01T01:58:25;96652.22;;;0.84;69.65
74270;BME280;62754;48.252;11.654;2023-03-01T02:00:53;96640.94;;;0.93;69.35
74270;BME280;62754;48.252;11.654;2023-03-01T02:03:25;96637.06;;;0.83;69.53
74270;BME280;62754;48.252;11.654;2023-03-01T02:06:00;96646.59;;;0.76;69.63
74270;BME280;62754;48.252;11.654;2023-03-01T02:08:31;96632.91;;;0.80;69.69
74270;BME280;62754;48.252;11.654;2023-03-01T02:10:58;96624.63;;;0.75;69.58
74270;BME280;62754;48.252;11.654;2023-03-01T02:13:24;96635.00;;;0.69;70.42
74270;BME280;62754;48.252;11.654;2023-03-01T02:15:50;96634.78;;;0.75;69.53
74270;BME280;62754;48.252;11.654;2023-03-01T02:18:18;96632.09;;;0.80;69.78
74270;BME280;62754;48.252;11.654;2023-03-01T02:21:05;96632.13;;;0.78;69.47
74270;BME280;62754;48.252;11.654;2023-03-01T02:23:34;96639.16;;;0.70;69.79
74270;BME280;62754;48.252;11.654;2023-03-01T02:26:07;96635.41;;;0.56;70.33
74270;BME280;62754;48.252;11.654;2023-03-01T02:28:36;96639.69;;;0.80;69.53
74270;BME280;62754;48.252;11.654;2023-03-01T02:31:07;96628.72;;;0.79;68.73
74270;BME280;62754;48.252;11.654;2023-03-01T02:33:36;96623.69;;;0.78;68.38
74270;BME280;62754;48.252;11.654;2023-03-01T02:36:06;96622.09;;;0.75;68.54
74270;BME280;62754;48.252;11.654;2023-03-01T02:38:32;96616.03;;;0.79;67.96
74270;BME280;62754;48.252;11.654;2023-03-01T02:40:59;96616.00;;;0.81;68.20
74270;BME280;62754;48.252;11.654;2023-03-01T02:43:29;96616.34;;;0.70;68.72
74270;BME280;62754;48.252;11.654;2023-03-01T02:46:06;96612.00;;;0.47;69.34
74270;BME280;62754;48.252;11.654;2023-03-01T02:48:40;96613.47;;;0.55;68.74
74270;BME280;62754;48.252;11.654;2023-03-01T02:51:52;96614.25;;;0.57;68.29
74270;BME280;62754;48.252;11.654;2023-03-01T02:54:28;96607.78;;;0.48;68.50
74270;BME280;62754;48.252;11.654;2023-03-01T02:56:57;96605.50;;;0.40;68.59
74270;BME280;62754;48.252;11.654;2023-03-01T02:59:27;96606.44;;;0.38;68.51
74270;BME280;62754;48.252;11.654;2023-03-01T03:01:54;96613.38;;;0.31;68.38
74270;BME280;62754;48.252;11.654;2023-03-01T03:04:20;96613.06;;;0.42;68.42
74270;BME280;62754;48.252;11.654;2023-03-01T03:06:50;96609.03;;;0.35;68.50
74270;BME280;62754;48.252;11.654;2023-03-01T03:09:16;96605.63;;;0.36;68.83
74270;BME280;62754;48.252;11.654;2023-03-01T03:11:42;96609.22;;;0.30;69.50
74270;BME280;62754;48.252;11.654;2023-03-01T03:14:13;96613.53;;;0.27;69.55
74270;BME280;62754;48.252;11.654;2023-03-01T03:16:43;96617.47;;;0.35;69.51
74270;BME280;62754;48.252;11.654;2023-03-01T03:19:09;96619.28;;;0.32;70.06
74270;BME280;62754;48.252;11.654;2023-03-01T03:21:35;96608.75;;;0.44;69.72
74270;BME280;62754;48.252;11.654;2023-03-01T03:24:01;96616.94;;;0.52;69.96
74270;BME280;62754;48.252;11.654;2023-03-01T03:26:27;96611.88;;;0.52;69.32
74270;BME280;62754;48.252;11.654;2023-03-01T03:28:53;96610.94;;;0.55;69.18
74270;BME280;62754;48.252;11.654;2023-03-01T03:31:19;96604.63;;;0.41;70.11
74270;BME280;62754;48.252;11.654;2023-03-01T03:33:45;96603.78;;;0.41;70.03
74270;BME280;62754;48.252;11.654;2023-03-01T03:36:22;96610.41;;;0.45;69.83
74270;BME280;62754;48.252;11.654;2023-03-01T03:38:48;96603.78;;;0.41;69.56
74270;BME280;62754;48.252;11.654;2023-03-01T03:41:15;96603.25;;;0.31;70.67
74270;BME280;62754;48.252;11.654;2023-03-01T03:43:42;96599.91;;;0.31;70.05
74270;BME280;62754;48.252;11.654;2023-03-01T03:46:09;96595.06;;;0.23;70.47
74270;BME280;62754;48.252;11.654;2023-03-01T03:48:44;96604.38;;;0.23;70.65
74270;BME280;62754;48.252;11.654;2023-03-01T03:51:12;96595.13;;;0.22;70.59
74270;BME280;62754;48.252;11.654;2023-03-01T03:53:38;96595.13;;;0.22;71.10
74270;BME280;62754;48.252;11.654;2023-03-01T03:56:04;96594.31;;;0.20;70.37
74270;BME280;62754;48.252;11.654;2023-03-01T03:58:30;96583.75;;;0.07;70.65
74270;BME280;62754;48.252;11.654;2023-03-01T04:00:56;96591.19;;;0.12;70.07
74270;BME280;62754;48.252;11.654;2023-03-01T04:03:24;96582.69;;;0.14;69.81
74270;BME280;62754;48.252;11.654;2023-03-01T04:05:50;96580.50;;;0.04;70.40
74270;BME280;62754;48.252;11.654;2023-03-01T04:08:18;96570.38;;;0.04;70.50
74270;BME280;62754;48.252;11.654;2023-03-01T04:10:46;96577.75;;;-0.17;70.38
74270;BME280;62754;48.252;11.654;2023-03-01T04:13:14;96574.25;;;-0.13;70.64
74270;BME280;62754;48.252;11.654;2023-03-01T04:15:40;96577.28;;;-0.29;70.92
74270;BME280;62754;48.252;11.654;2023-03-01T04:18:06;96574.47;;;-0.48;70.96
74270;BME280;62754;48.252;11.654;2023-03-01T04:20:34;96585.19;;;-0.40;71.24
74270;BME280;62754;48.252;11.654;2023-03-01T04:23:12;96585.94;;;-0.36;71.09
74270;BME280;62754;48.252;11.654;2023-03-01T04:25:41;96577.25;;;-0.57;71.17
74270;BME280;62754;48.252;11.654;2023-03-01T04:28:08;96579.44;;;-0.74;72.15
74270;BME280;62754;48.252;11.654;2023-03-01T04:30:35;96583.78;;;-0.79;71.99
74270;BME280;62754;48.252;11.654;2023-03-01T04:33:06;96582.22;;;-0.83;72.08
74270;BME280;62754;48.252;11.654;2023-03-01T04:35:32;96582.50;;;-0.94;72.63
74270;BME280;62754;48.252;11.654;2023-03-01T04:37:58;96580.13;;;-1.00;73.17
74270;BME280;62754;48.252;11.654;2023-03-01T04:40:24;96578.44;;;-1.00;73.04
74270;BME280;62754;48.252;11.654;2023-03-01T04:42:50;96581.88;;;-1.01;72.98
74270;BME280;62754;48.252;11.654;2023-03-01T04:45:16;96582.72;;;-1.02;73.62
74270;BME280;62754;48.252;11.654;2023-03-01T04:47:43;96584.66;;;-1.11;73.80
74270;BME280;62754;48.252;11.654;2023-03-01T04:50:13;96571.03;;;-1.06;73.66
74270;BME280;62754;48.252;11.654;2023-03-01T04:52:39;96578.91;;;-1.16;74.18
74270;BME280;62754;48.252;11.654;2023-03-01T04:55:05;96573.97;;;-1.21;74.46
74270;BME280;62754;48.252;11.654;2023-03-01T04:57:31;96569.94;;;-1.28;74.66
74270;BME280;62754;48.252;11.654;2023-03-01T04:59:57;96568.81;;;-1.16;74.32
74270;BME280;62754;48.252;11.654;2023-03-01T05:02:23;96572.22;;;-1.19;73.88
74270;BME280;62754;48.252;11.654;2023-03-01T05:04:49;96567.88;;;-1.14;73.62
74270;BME280;62754;48.252;11.654;2023-03-01T05:07:15;96568.09;;;-1.23;73.89
74270;BME280;62754;48.252;11.654;2023-03-01T05:09:40;96563.16;;;-1.27;74.00
74270;BME280;62754;48.252;11.654;2023-03-01T05:12:06;96554.81;;;-1.29;74.03
74270;BME280;62754;48.252;11.654;2023-03-01T05:14:32;96556.81;;;-1.42;74.13
74270;BME280;62754;48.252;11.654;2023-03-01T05:16:58;96560.63;;;-1.27;73.68
74270;BME280;62754;48.252;11.654;2023-03-01T05:19:23;96557.13;;;-1.22;73.39
74270;BME280;62754;48.252;11.654;2023-03-01T05:21:49;96560.25;;;-1.43;74.42
74270;BME280;62754;48.252;11.654;2023-03-01T05:24:15;96555.72;;;-1.32;73.83
74270;BME280;62754;48.252;11.654;2023-03-01T05:26:40;96562.94;;;-1.18;73.47
74270;BME280;62754;48.252;11.654;2023-03-01T05:29:06;96567.22;;;-1.20;73.49
74270;BME280;62754;48.252;11.654;2023-03-01T05:31:32;96568.09;;;-1.21;73.43
74270;BME280;62754;48.252;11.654;2023-03-01T05:33:58;96559.25;;;-1.07;73.32
74270;BME280;62754;48.252;11.654;2023-03-01T05:36:23;96562.63;;;-1.08;72.90
74270;BME280;62754;48.252;11.654;2023-03-01T05:38:49;96560.06;;;-1.05;72.91
74270;BME280;62754;48.252;11.654;2023-03-01T05:41:15;96561.78;;;-1.07;72.88
74270;BME280;62754;48.252;11.654;2023-03-01T05:43:41;96565.13;;;-1.06;73.05
74270;BME280;62754;48.252;11.654;2023-03-01T05:46:07;96554.19;;;-1.07;72.89
74270;BME280;62754;48.252;11.654;2023-03-01T05:48:32;96551.34;;;-0.94;72.44
74270;BME280;62754;48.252;11.654;2023-03-01T05:50:59;96554.78;;;-0.97;72.63
74270;BME280;62754;48.252;11.654;2023-03-01T05:53:25;96560.00;;;-1.03;72.95
74270;BME280;62754;48.252;11.654;2023-03-01T05:55:51;96549.56;;;-0.92;72.49
74270;BME280;62754;48.252;11.654;2023-03-01T05:58:19;96557.00;;;-0.86;71.43
74270;BME280;62754;48.252;11.654;2023-03-01T06:00:46;96555.13;;;-0.80;71.46
74270;BME280;62754;48.252;11.654;2023-03-01T06:03:14;96553.53;;;-0.82;71.57
74270;BME280;62754;48.252;11.654;2023-03-01T06:05:41;96549.41;;;-0.86;72.11
74270;BME280;62754;48.252;11.654;2023-03-01T06:08:09;96559.47;;;-0.85;71.86
74270;BME280;62754;48.252;11.654;2023-03-01T06:10:35;96558.47;;;-0.78;71.28
74270;BME280;62754;48.252;11.654;2023-03-01T06:13:00;96559.72;;;-0.63;70.76
74270;BME280;62754;48.252;11.654;2023-03-01T06:15:26;96569.13;;;-0.68;71.10
74270;BME280;62754;48.252;11.654;2023-03-01T06:17:54;96562.78;;;-0.54;70.42
74270;BME280;62754;48.252;11.654;2023-03-01T06:20:22;96568.13;;;-0.63;70.43
74270;BME280;62754;48.252;11.654;2023-03-01T06:22:48;96561.75;;;-0.76;70.88
74270;BME280;62754;48.252;11.654;2023-03-01T06:25:17;96569.53;;;-0.82;70.53
74270;BME280;62754;48.252;11.654;2023-03-01T06:27:44;96571.97;;;-0.79;70.34
74270;BME280;62754;48.252;11.654;2023-03-01T06:30:12;96568.50;;;-0.75;70.70
74270;BME280;62754;48.252;11.654;2023-03-01T06:32:38;96572.28;;;-0.60;69.83
74270;BME280;62754;48.252;11.654;2023-03-01T06:35:04;96570.06;;;-0.71;70.18
74270;BME280;62754;48.252;11.654;2023-03-01T06:37:30;96574.19;;;-0.68;70.33
74270;BME280;62754;48.252;11.654;2023-03-01T06:39:56;96574.19;;;-0.68;70.32
74270;BME280;62754;48.252;11.654;2023-03-01T06:42:22;96576.16;;;-0.49;69.63
74270;BME280;62754;48.252;11.654;2023-03-01T06:44:47;96572.88;;;-0.52;69.49
74270;BME280;62754;48.252;11.654;2023-03-01T06:47:13;96573.97;;;-0.61;70.38
74270;BME280;62754;48.252;11.654;2023-03-01T06:49:39;96580.13;;;-0.69;71.06
74270;BME280;62754;48.252;11.654;2023-03-01T06:52:05;96579.66;;;-0.53;69.81
74270;BME280;62754;48.252;11.654;2023-03-01T06:54:30;96583.56;;;-0.42;69.67
74270;BME280;62754;48.252;11.654;2023-03-01T06:56:56;96582.88;;;-0.47;69.27
74270;BME280;62754;48.252;11.654;2023-03-01T06:59:22;96580.47;;;-0.52;70.14
74270;BME280;62754;48.252;11.654;2023-03-01T07:01:48;96563.00;;;-0.60;69.94
74270;BME280;62754;48.252;11.654;2023-03-01T07:04:13;96562.75;;;-0.52;70.46
74270;BME280;62754;48.252;11.654;2023-03-01T07:06:39;96563.63;;;-0.53;70.27
74270;BME280;62754;48.252;11.654;2023-03-01T07:09:05;96567.59;;;-0.44;69.99
74270;BME280;62754;48.252;11.654;2023-03-01T07:11:32;96566.53;;;-0.37;69.62
74270;BME280;62754;48.252;11.654;2023-03-01T07:13:58;96569.94;;;-0.38;68.83
74270;BME280;62754;48.252;11.654;2023-03-01T07:16:24;96570.91;;;-0.42;68.88
74270;BME280;62754;48.252;11.654;2023-03-01T07:18:50;96557.47;;;-0.44;69.18
74270;BME280;62754;48.252;11.654;2023-03-01T07:21:15;96566.84;;;-0.46;69.76
74270;BME280;62754;48.252;11.654;2023-03-01T07:23:41;96565.03;;;-0.43;69.14
74270;BME280;62754;48.252;11.654;2023-03-01T07:26:07;96562.44;;;-0.41;69.27
74270;BME280;62754;48.252;11.654;2023-03-01T07:28:33;96559.91;;;-0.41;69.35
74270;BME280;62754;48.252;11.654;2023-03-01T07:31:02;96562.28;;;-0.35;69.10
74270;BME280;62754;48.252;11.654;2023-03-01T07:33:28;96548.72;;;-0.34;68.53
74270;BME280;62754;48.252;11.654;2023-03-01T07:35:59;96541.78;;;-0.28;68.19
74270;BME280;62754;48.252;11.654;2023-03-01T07:38:26;96543.03;;;-0.13;67.77
74270;BME280;62754;48.252;11.654;2023-03-01T07:40:52;96540.53;;;-0.15;68.02
74270;BME280;62754;48.252;11.654;2023-03-01T07:43:18;96539.41;;;-0.06;67.94
74270;BME280;62754;48.252;11.654;2023-03-01T07:45:44;96536.53;;;0.05;67.04
74270;BME280;62754;48.252;11.654;2023-03-01T07:48:09;96537.97;;;0.13;66.18
74270;BME280;62754;48.252;11.654;2023-03-01T07:50:35;96551.50;;;0.12;66.43
74270;BME280;62754;48.252;11.654;2023-03-01T07:53:01;96546.78;;;0.02;66.91
74270;BME280;62754;48.252;11.654;2023-03-01T07:55:27;96547.94;;;0.18;65.89
74270;BME280;62754;48.252;11.654;2023-03-01T07:57:52;96548.72;;;-0.07;67.05
74270;BME280;62754;48.252;11.654;2023-03-01T08:00:18;96551.47;;;0.14;66.01
74270;BME280;62754;48.252;11.654;2023-03-01T08:02:44;96543.50;;;0.24;66.09
74270;BME280;62754;48.252;11.654;2023-03-01T08:05:10;96546.09;;;0.23;66.13
74270;BME280;62754;48.252;11.654;2023-03-01T08:07:36;96544.34;;;0.25;65.74
74270;BME280;62754;48.252;11.654;2023-03-01T08:10:02;96544.16;;;0.31;65.33
74270;BME280;62754;48.252;11.654;2023-03-01T08:12:28;96535.94;;;0.49;65.19
74270;BME280;62754;48.252;11.654;2023-03-01T08:14:54;96531.84;;;0.45;64.61
74270;BME280;62754;48.252;11.654;2023-03-01T08:17:20;96532.56;;;0.48;64.33
74270;BME280;62754;48.252;11.654;2023-03-01T08:19:46;96528.19;;;0.54;64.91
74270;BME280;62754;48.252;11.654;2023-03-01T08:22:12;96532.88;;;0.64;64.79
74270;BME280;62754;48.252;11.654;2023-03-01T08:24:37;96525.13;;;0.69;64.85
74270;BME280;62754;48.252;11.654;2023-03-01T08:27:03;96536.00;;;0.72;63.65
74270;BME280;62754;48.252;11.654;2023-03-01T08:29:32;96529.94;;;1.00;63.00
74270;BME280;62754;48.252;11.654;2023-03-01T08:31:58;96533.88;;;0.85;63.12
74270;BME280;62754;48.252;11.654;2023-03-01T08:34:24;96523.19;;;1.00;62.42
74270;BME280;62754;48.252;11.654;2023-03-01T08:36:50;96518.72;;;1.28;63.23
74270;BME280;62754;48.252;11.654;2023-03-01T08:39:17;96524.66;;;1.29;62.41
74270;BME280;62754;48.252;11.654;2023-03-01T08:41:43;96516.75;;;1.36;62.74
74270;BME280;62754;48.252;11.654;2023-03-01T08:44:10;96510.25;;;1.51;61.66
74270;BME280;62754;48.252;11.654;2023-03-01T08:46:39;96511.50;;;1.41;61.16
74270;BME280;62754;48.252;11.654;2023-03-01T08:49:07;96511.75;;;1.57;61.80
74270;BME280;62754;48.252;11.654;2023-03-01T08:51:34;96515.44;;;1.93;61.36
74270;BME280;62754;48.252;11.654;2023-03-01T08:53:59;96506.41;;;2.06;60.46
74270;BME280;62754;48.252;11.654;2023-03-01T08:56:25;96515.97;;;2.21;60.92
74270;BME280;62754;48.252;11.654;2023-03-01T08:58:51;96517.22;;;1.89;60.98
74270;BME280;62754;48.252;11.654;2023-03-01T09:01:18;96504.03;;;1.81;60.80
74270;BME280;62754;48.252;11.654;2023-03-01T09:03:44;96502.16;;;2.07;61.57
74270;BME280;62754;48.252;11.654;2023-03-01T09:06:11;96507.50;;;2.01;60.63
74270;BME280;62754;48.252;11.654;2023-03-01T09:08:39;96513.53;;;1.76;61.20
74270;BME280;62754;48.252;11.654;2023-03-01T09:11:07;96501.38;;;1.84;61.10
74270;BME280;62754;48.252;11.654;2023-03-01T09:13:33;96512.81;;;1.73;61.77
74270;BME280;62754;48.252;11.654;2023-03-01T09:16:02;96509.03;;;1.83;62.13
74270;BME280;62754;48.252;11.654;2023-03-01T09:18:28;96517.06;;;1.72;62.25
74270;BME280;62754;48.252;11.654;2023-03-01T09:21:01;96510.81;;;1.81;61.27
74270;BME280;62754;48.252;11.654;2023-03-01T09:23:27;96510.00;;;1.80;61.84
74270;BME280;62754;48.252;11.654;2023-03-01T09:25:53;96512.06;;;1.92;61.41
74270;BME280;62754;48.252;11.654;2023-03-01T09:28:19;96499.34;;;2.13;60.38
74270;BME280;62754;48.252;11.654;2023-03-01T09:30:44;96511.06;;;2.37;59.60
74270;BME280;62754;48.252;11.654;2023-03-01T09:33:10;96502.38;;;2.22;59.53
74270;BME280;62754;48.252;11.654;2023-03-01T09:35:36;96495.25;;;2.51;59.39
74270;BME280;62754;48.252;11.654;2023-03-01T09:38:01;96495.13;;;2.54;59.14
74270;BME280;62754;48.252;11.654;2023-03-01T09:40:28;96493.69;;;2.67;58.55
74270;BME280;62754;48.252;11.654;2023-03-01T09:43:13;96499.03;;;3.20;58.33
74270;BME280;62754;48.252;11.654;2023-03-01T09:45:43;96486.78;;;3.47;56.32
74270;BME280;62754;48.252;11.654;2023-03-01T09:48:16;96483.88;;;3.54;56.22
74270;BME280;62754;48.252;11.654;2023-03-01T09:50:43;96485.66;;;3.52;56.61
74270;BME280;62754;48.252;11.654;2023-03-01T09:53:19;96498.06;;;3.22;55.72
74270;BME280;62754;48.252;11.654;2023-03-01T09:55:54;96491.50;;;3.54;55.51
74270;BME280;62754;48.252;11.654;2023-03-01T10:03:41;96476.34;;;3.87;56.29
74270;BME280;62754;48.252;11.654;2023-03-01T10:06:20;96472.63;;;4.46;54.63
74270;BME280;62754;48.252;11.654;2023-03-01T10:11:24;96465.03;;;4.61;52.26
74270;BME280;62754;48.252;11.654;2023-03-01T10:16:51;96462.94;;;5.34;51.68
74270;BME280;62754;48.252;11.654;2023-03-01T10:19:30;96453.63;;;5.48;50.39
74270;BME280;62754;48.252;11.654;2023-03-01T10:22:03;96457.00;;;5.49;50.57
74270;BME280;62754;48.252;11.654;2023-03-01T10:24:33;96454.84;;;5.88;49.66
74270;BME280;62754;48.252;11.654;2023-03-01T10:27:07;96449.88;;;6.01;49.19
74270;BME280;62754;48.252;11.654;2023-03-01T10:29:50;96440.84;;;6.39;49.18
74270;BME280;62754;48.252;11.654;2023-03-01T10:32:21;96449.47;;;7.09;48.09
74270;BME280;62754;48.252;11.654;2023-03-01T10:34:47;96444.88;;;7.28;46.61
74270;BME280;62754;48.252;11.654;2023-03-01T10:37:16;96444.44;;;7.07;46.87
74270;BME280;62754;48.252;11.654;2023-03-01T10:40:01;96447.25;;;6.46;48.75
74270;BME280;62754;48.252;11.654;2023-03-01T10:42:32;96441.41;;;6.44;48.62
74270;BME280;62754;48.252;11.654;2023-03-01T10:50:30;96431.78;;;6.34;48.79
74270;BME280;62754;48.252;11.654;2023-03-01T10:53:04;96428.03;;;6.39;48.95
74270;BME280;62754;48.252;11.654;2023-03-01T10:55:37;96422.91;;;6.25;49.15
74270;BME280;62754;48.252;11.654;2023-03-01T11:00:46;96412.59;;;7.52;46.07
74270;BME280;62754;48.252;11.654;2023-03-01T11:03:14;96410.88;;;7.39;46.60
74270;BME280;62754;48.252;11.654;2023-03-01T11:08:34;96393.97;;;7.63;46.25
74270;BME280;62754;48.252;11.654;2023-03-01T11:11:29;96387.44;;;7.84;45.53
74270;BME280;62754;48.252;11.654;2023-03-01T11:13:58;96375.91;;;8.04;44.37
74270;BME280;62754;48.252;11.654;2023-03-01T11:16:31;96380.59;;;8.37;44.11
74270;BME280;62754;48.252;11.654;2023-03-01T11:19:00;96372.81;;;9.00;42.51
74270;BME280;62754;48.252;11.654;2023-03-01T11:21:28;96370.69;;;8.94;42.50
74270;BME280;62754;48.252;11.654;2023-03-01T11:23:58;96364.84;;;8.79;43.22
74270;BME280;62754;48.252;11.654;2023-03-01T11:26:26;96360.56;;;8.42;45.47
74270;BME280;62754;48.252;11.654;2023-03-01T11:28:55;96349.88;;;8.60;43.47
74270;BME280;62754;48.252;11.654;2023-03-01T11:31:24;96351.44;;;9.36;42.89
74270;BME280;62754;48.252;11.654;2023-03-01T11:33:59;96349.13;;;9.68;41.74
74270;BME280;62754;48.252;11.654;2023-03-01T11:39:05;96348.63;;;9.63;41.28
74270;BME280;62754;48.252;11.654;2023-03-01T11:41:39;96333.97;;;9.28;43.13
74270;BME280;62754;48.252;11.654;2023-03-01T11:44:25;96335.34;;;9.69;42.16
74270;BME280;62754;48.252;11.654;2023-03-01T11:58:27;96322.44;;;10.38;40.97
74270;BME280;62754;48.252;11.654;2023-03-01T12:11:32;96314.28;;;9.64;42.12
74270;BME280;62754;48.252;11.654;2023-03-01T12:14:24;96302.75;;;9.22;43.51
74270;BME280;62754;48.252;11.654;2023-03-01T12:22:32;96294.66;;;9.85;42.64
74270;BME280;62754;48.252;11.654;2023-03-01T12:28:00;96295.03;;;10.26;41.06
74270;BME280;62754;48.252;11.654;2023-03-01T12:30:34;96285.66;;;10.47;40.94
74270;BME280;62754;48.252;11.654;2023-03-01T12:35:58;96272.91;;;11.54;39.07
74270;BME280;62754;48.252;11.654;2023-03-01T12:41:14;96264.28;;;11.65;38.07
74270;BME280;62754;48.252;11.654;2023-03-01T12:50:03;96253.00;;;12.28;37.93
74270;BME280;62754;48.252;11.654;2023-03-01T12:52:50;96260.03;;;11.75;38.65
74270;BME280;62754;48.252;11.654;2023-03-01T12:55:29;96258.00;;;12.20;37.68
74270;BME280;62754;48.252;11.654;2023-03-01T13:00:32;96256.31;;;12.39;36.78
74270;BME280;62754;48.252;11.654;2023-03-01T13:06:02;96255.06;;;13.62;35.12
74270;BME280;62754;48.252;11.654;2023-03-01T13:08:54;96268.63;;;14.12;34.52
74270;BME280;62754;48.252;11.654;2023-03-01T13:11:24;96270.59;;;13.81;34.59
74270;BME280;62754;48.252;11.654;2023-03-01T13:13:50;96262.00;;;13.80;34.24
74270;BME280;62754;48.252;11.654;2023-03-01T13:16:40;96264.72;;;13.60;34.57
74270;BME280;62754;48.252;11.654;2023-03-01T13:19:15;96268.56;;;13.65;34.67
74270;BME280;62754;48.252;11.654;2023-03-01T13:21:44;96265.28;;;13.44;34.87
74270;BME280;62754;48.252;11.654;2023-03-01T13:24:32;96262.13;;;13.60;34.66
74270;BME280;62754;48.252;11.654;2023-03-01T13:29:57;96260.66;;;13.86;34.21
74270;BME280;62754;48.252;11.654;2023-03-01T13:32:31;96257.13;;;13.39;35.09
74270;BME280;62754;48.252;11.654;2023-03-01T13:37:28;96251.41;;;13.35;35.55
74270;BME280;62754;48.252;11.654;2023-03-01T13:39:57;96250.16;;;13.20;36.41
74270;BME280;62754;48.252;11.654;2023-03-01T13:42:35;96242.63;;;13.08;36.21
74270;BME280;62754;48.252;11.654;2023-03-01T13:45:01;96224.00;;;12.24;37.83
74270;BME280;62754;48.252;11.654;2023-03-01T13:47:27;96221.47;;;11.41;39.36
74270;BME280;62754;48.252;11.654;2023-03-01T13:49:59;96234.19;;;11.54;38.65
74270;BME280;62754;48.252;11.654;2023-03-01T13:54:53;96231.38;;;11.25;40.37
74270;BME280;62754;48.252;11.654;2023-03-01T13:57:23;96237.31;;;11.37;40.50
74270;BME280;62754;48.252;11.654;2023-03-01T13:59:51;96233.06;;;11.68;40.08
74270;BME280;62754;48.252;11.654;2023-03-01T14:02:17;96228.50;;;11.39;40.64
74270;BME280;62754;48.252;11.654;2023-03-01T14:04:42;96227.97;;;11.57;41.21
74270;BME280;62754;48.252;11.654;2023-03-01T14:07:27;96216.25;;;11.94;40.04
74270;BME280;62754;48.252;11.654;2023-03-01T14:09:58;96223.59;;;12.19;38.83
74270;BME280;62754;48.252;11.654;2023-03-01T14:15:29;96218.41;;;11.16;40.60
74270;BME280;62754;48.252;11.654;2023-03-01T14:18:14;96208.31;;;10.92;41.97
74270;BME280;62754;48.252;11.654;2023-03-01T14:20:44;96204.81;;;10.71;42.00
74270;BME280;62754;48.252;11.654;2023-03-01T14:23:18;96206.72;;;10.69;42.26
74270;BME280;62754;48.252;11.654;2023-03-01T14:26:02;96208.56;;;11.41;40.99